createdAt,value
2019-03-31T00:00:06.557Z,100901.02
2019-03-31T00:02:35.074Z,100899.33
2019-03-31T00:05:04.081Z,100898.89
2019-03-31T00:07:32.522Z,100904.06
2019-03-31T00:10:01.001Z,100900.67
2019-03-31T00:12:29.463Z,100901.97
2019-03-31T00:14:57.900Z,100896.86
2019-03-31T00:17:26.342Z,100897.33
2019-03-31T00:19:54.818Z,100898.66
2019-03-31T00:22:23.247Z,100901.64
2019-03-31T00:24:53.388Z,100898.25
2019-03-31T00:27:21.885Z,100899.98
2019-03-31T00:29:50.363Z,100895.31
2019-03-31T00:32:18.847Z,100897.01
2019-03-31T00:34:47.307Z,100900.84
2019-03-31T00:37:15.745Z,100899.22
2019-03-31T00:39:44.185Z,100897.52
2019-03-31T00:42:12.759Z,100900.92
2019-03-31T00:44:41.191Z,100906.05
2019-03-31T00:47:09.662Z,100907.75
2019-03-31T00:49:38.149Z,100902.25
2019-03-31T00:52:06.632Z,100903.09
2019-03-31T00:54:35.069Z,100903.92
2019-03-31T00:57:03.581Z,100912.47
2019-03-31T00:59:32.034Z,100904.82
2019-03-31T01:02:02.454Z,100903.09
2019-03-31T01:04:33.463Z,100909.06
2019-03-31T01:07:02.193Z,100906.52
2019-03-31T01:09:32.985Z,100900.55
2019-03-31T01:12:04.237Z,100906.09
2019-03-31T01:14:33.306Z,100905.69
2019-03-31T01:17:03.304Z,100899.73
2019-03-31T01:19:31.809Z,100902.28
2019-03-31T01:22:00.223Z,100901.00
2019-03-31T01:24:28.763Z,100905.25
2019-03-31T01:26:57.266Z,100905.25
2019-03-31T01:29:25.914Z,100906.55
2019-03-31T01:31:56.053Z,100902.71
2019-03-31T01:34:25.145Z,100900.16
2019-03-31T01:36:53.683Z,100903.14
2019-03-31T01:39:24.380Z,100896.31
2019-03-31T01:41:52.999Z,100903.12
2019-03-31T01:44:21.608Z,100905.67
2019-03-31T01:46:50.024Z,100901.83
2019-03-31T01:49:18.469Z,100902.27
2019-03-31T01:51:47.028Z,100904.83
2019-03-31T01:54:15.468Z,100918.86
2019-03-31T01:56:44.921Z,100914.59
2019-03-31T01:59:13.610Z,100922.65
2019-03-31T02:01:42.133Z,100922.22
2019-03-31T02:04:10.577Z,100920.94
2019-03-31T02:06:39.112Z,100915.86
2019-03-31T02:09:07.631Z,100923.91
2019-03-31T02:11:36.064Z,100926.45
2019-03-31T02:14:04.662Z,100927.28
2019-03-31T02:16:33.196Z,100926.44
2019-03-31T02:19:01.651Z,100923.45
2019-03-31T02:21:30.089Z,100921.76
2019-03-31T02:23:58.529Z,100924.72
2019-03-31T02:26:26.992Z,100917.91
2019-03-31T02:28:55.515Z,100918.78
2019-03-31T02:31:23.987Z,100925.05
2019-03-31T02:33:52.424Z,100924.18
2019-03-31T02:36:20.873Z,100929.31
2019-03-31T02:38:49.325Z,100931.02
2019-03-31T02:41:17.753Z,100934.41
2019-03-31T02:43:46.210Z,100937.38
2019-03-31T02:46:14.653Z,100936.08
2019-03-31T02:48:43.125Z,100939.06
2019-03-31T02:51:11.629Z,100941.61
2019-03-31T02:53:40.212Z,100940.77
2019-03-31T02:56:09.692Z,100941.63
2019-03-31T02:58:38.211Z,100942.87
2019-03-31T03:01:07.903Z,100947.55
2019-03-31T03:03:39.384Z,100944.54
2019-03-31T03:06:10.181Z,100947.11
2019-03-31T03:08:41.338Z,100941.17
2019-03-31T03:11:12.907Z,100942.86
2019-03-31T03:13:43.635Z,100947.56
2019-03-31T03:16:21.251Z,100943.31
2019-03-31T03:18:50.413Z,100953.06
2019-03-31T03:21:23.668Z,100951.36
2019-03-31T03:23:49.626Z,100948.42
2019-03-31T03:26:18.512Z,100947.56
2019-03-31T03:28:47.355Z,100953.06
2019-03-31T03:31:17.339Z,100953.48
2019-03-31T03:33:46.199Z,100953.06
2019-03-31T03:36:15.580Z,100963.70
2019-03-31T03:38:44.181Z,100961.15
2019-03-31T03:41:12.633Z,100961.99
2019-03-31T03:43:55.061Z,100970.94
2019-03-31T03:46:11.237Z,100972.21
2019-03-31T03:48:39.706Z,100971.81
2019-03-31T03:51:08.173Z,100967.55
2019-03-31T03:53:36.624Z,100979.03
2019-03-31T03:56:05.163Z,100973.92
2019-03-31T03:58:33.676Z,100979.03
2019-03-31T04:01:02.647Z,100973.50
2019-03-31T04:03:31.350Z,100979.44
2019-03-31T04:05:59.945Z,100986.61
2019-03-31T04:08:28.421Z,100982.80
2019-03-31T04:11:12.314Z,100981.08
2019-03-31T04:13:40.782Z,100985.33
2019-03-31T04:16:09.369Z,100991.28
2019-03-31T04:18:37.887Z,100993.81
2019-03-31T04:21:06.501Z,100997.19
2019-03-31T04:23:34.960Z,101001.83
2019-03-31T04:26:03.433Z,101003.84
2019-03-31T04:28:31.888Z,101008.94
2019-03-31T04:31:00.346Z,101013.61
2019-03-31T04:33:48.417Z,101021.66
2019-03-31T04:35:59.002Z,101028.02
2019-03-31T04:38:27.446Z,101026.22
2019-03-31T04:40:55.983Z,101039.80
2019-03-31T04:43:24.435Z,101038.49
2019-03-31T04:45:55.296Z,101043.45
2019-03-31T04:48:23.742Z,101048.12
2019-03-31T04:50:52.387Z,101052.65
2019-03-31T04:53:20.984Z,101058.51
2019-03-31T04:55:49.426Z,101069.91
2019-03-31T04:58:17.882Z,101068.67
2019-03-31T05:00:46.334Z,101079.68
2019-03-31T05:03:14.796Z,101083.84
2019-03-31T05:05:43.271Z,101086.26
2019-03-31T05:08:11.727Z,101096.90
2019-03-31T05:10:40.179Z,101093.89
2019-03-31T05:13:08.639Z,101093.31
2019-03-31T05:15:37.094Z,101104.68
2019-03-31T05:18:05.566Z,101107.16
2019-03-31T05:20:34.020Z,101111.03
2019-03-31T05:23:02.553Z,101117.81
2019-03-31T05:25:31.893Z,101122.87
2019-03-31T05:28:00.365Z,101119.58
2019-03-31T05:30:28.810Z,101124.27
2019-03-31T05:32:57.255Z,101124.22
2019-03-31T05:35:27.158Z,101129.38
2019-03-31T05:37:55.868Z,101134.50
2019-03-31T05:40:24.315Z,101136.90
2019-03-31T05:42:52.823Z,101139.94
2019-03-31T05:45:21.247Z,101148.75
2019-03-31T05:47:49.725Z,101148.47
2019-03-31T05:50:18.193Z,101143.78
2019-03-31T05:52:46.616Z,101147.22
2019-03-31T05:55:15.093Z,101154.95
2019-03-31T05:57:43.592Z,101145.50
2019-03-31T06:00:12.138Z,101151.58
2019-03-31T06:02:40.591Z,101156.27
2019-03-31T06:05:09.032Z,101154.22
2019-03-31T06:07:37.598Z,101164.04
2019-03-31T06:10:07.515Z,101162.44
2019-03-31T06:12:35.988Z,101167.59
2019-03-31T06:15:05.378Z,101165.47
2019-03-31T06:17:33.855Z,101162.13
2019-03-31T06:20:02.355Z,101172.32
2019-03-31T06:22:30.837Z,101175.69
2019-03-31T06:24:59.276Z,101172.66
2019-03-31T06:27:27.745Z,101184.92
2019-03-31T06:29:56.215Z,101180.03
2019-03-31T06:32:24.853Z,101187.30
2019-03-31T06:34:53.305Z,101183.08
2019-03-31T06:37:21.765Z,101193.57
2019-03-31T06:39:50.200Z,101191.85
2019-03-31T06:42:18.749Z,101198.23
2019-03-31T06:44:47.176Z,101195.73
2019-03-31T06:47:15.621Z,101195.34
2019-03-31T06:49:44.092Z,101196.30
2019-03-31T06:52:12.544Z,101203.88
2019-03-31T06:54:40.984Z,101202.27
2019-03-31T06:57:09.448Z,101202.38
2019-03-31T06:59:37.878Z,101213.51
2019-03-31T07:02:06.328Z,101218.25
2019-03-31T07:04:34.795Z,101222.48
2019-03-31T07:07:03.334Z,101215.82
2019-03-31T07:09:31.817Z,101213.28
2019-03-31T07:12:00.463Z,101222.31
2019-03-31T07:14:29.385Z,101224.04
2019-03-31T07:16:57.930Z,101226.62
2019-03-31T07:19:29.123Z,101226.65
2019-03-31T07:21:58.048Z,101235.50
2019-03-31T07:24:26.811Z,101239.41
2019-03-31T07:26:55.398Z,101241.06
2019-03-31T07:29:23.889Z,101245.00
2019-03-31T07:31:52.600Z,101248.88
2019-03-31T07:34:21.332Z,101258.27
2019-03-31T07:36:49.948Z,101258.23
2019-03-31T07:39:18.954Z,101256.97
2019-03-31T07:41:49.650Z,101250.64
2019-03-31T07:44:18.361Z,101254.43
2019-03-31T07:46:47.659Z,101255.83
2019-03-31T07:49:16.100Z,101255.84
2019-03-31T07:51:46.116Z,101252.94
2019-03-31T07:54:14.597Z,101253.00
2019-03-31T07:56:43.094Z,101256.02
2019-03-31T07:59:11.555Z,101248.00
2019-03-31T08:01:39.976Z,101264.50
2019-03-31T08:04:08.412Z,101262.08
2019-03-31T08:06:36.865Z,101261.29
2019-03-31T08:09:07.164Z,101262.64
2019-03-31T08:11:35.976Z,101259.70
2019-03-31T08:14:04.391Z,101267.31
2019-03-31T08:16:32.860Z,101266.09
2019-03-31T08:19:02.943Z,101271.15
2019-03-31T08:21:31.371Z,101271.56
2019-03-31T08:24:00.096Z,101270.30
2019-03-31T08:26:28.660Z,101277.57
2019-03-31T08:28:58.651Z,101270.31
2019-03-31T08:31:27.261Z,101280.08
2019-03-31T08:33:56.076Z,101287.77
2019-03-31T08:36:24.585Z,101283.91
2019-03-31T08:38:54.057Z,101285.88
2019-03-31T08:41:25.201Z,101291.02
2019-03-31T08:43:53.681Z,101301.22
2019-03-31T08:46:22.295Z,101299.02
2019-03-31T08:48:50.728Z,101303.70
2019-03-31T08:51:19.434Z,101306.34
2019-03-31T08:53:47.997Z,101308.88
2019-03-31T08:56:16.500Z,101312.73
2019-03-31T08:58:44.976Z,101318.22
2019-03-31T09:01:15.044Z,101310.63
2019-03-31T09:03:43.499Z,101324.75
2019-03-31T09:06:11.921Z,101331.95
2019-03-31T09:08:40.428Z,101330.17
2019-03-31T09:11:08.895Z,101331.52
2019-03-31T09:13:37.339Z,101328.53
2019-03-31T09:16:05.888Z,101334.58
2019-03-31T09:18:34.352Z,101333.71
2019-03-31T09:21:02.782Z,101343.07
2019-03-31T09:23:31.255Z,101348.67
2019-03-31T09:25:59.674Z,101349.92
2019-03-31T09:28:28.407Z,101352.53
2019-03-31T09:30:56.867Z,101350.44
2019-03-31T09:33:25.297Z,101348.23
2019-03-31T09:35:53.742Z,101348.62
2019-03-31T09:38:22.230Z,101349.06
2019-03-31T09:40:50.688Z,101349.52
2019-03-31T09:43:19.173Z,101354.63
2019-03-31T09:45:47.586Z,101351.25
2019-03-31T09:48:16.011Z,101344.89
2019-03-31T09:50:44.532Z,101348.29
2019-03-31T09:53:12.943Z,101350.39
2019-03-31T09:55:41.478Z,101349.10
2019-03-31T09:58:09.916Z,101353.41
2019-03-31T10:00:50.138Z,101353.84
2019-03-31T10:03:18.911Z,101349.55
2019-03-31T10:05:48.147Z,101354.22
2019-03-31T10:08:17.464Z,101347.42
2019-03-31T10:10:46.019Z,101353.31
2019-03-31T10:13:14.507Z,101344.00
2019-03-31T10:15:42.941Z,101345.18
2019-03-31T10:18:11.403Z,101347.36
2019-03-31T10:20:39.841Z,101348.59
2019-03-31T10:23:08.368Z,101352.44
2019-03-31T10:25:36.785Z,101352.05
2019-03-31T10:28:05.387Z,101350.34
2019-03-31T10:30:38.562Z,101350.38
2019-03-31T10:33:08.214Z,101343.19
2019-03-31T10:35:37.584Z,101355.98
2019-03-31T10:38:06.681Z,101352.95
2019-03-31T10:40:35.121Z,101361.95
2019-03-31T10:43:03.642Z,101361.53
2019-03-31T10:45:32.147Z,101352.20
2019-03-31T10:48:00.591Z,101357.71
2019-03-31T10:50:29.113Z,101352.64
2019-03-31T10:52:57.627Z,101352.63
2019-03-31T10:55:26.212Z,101355.15
2019-03-31T10:57:54.622Z,101355.16
2019-03-31T11:00:37.518Z,101353.47
2019-03-31T11:03:07.525Z,101356.81
2019-03-31T11:05:36.184Z,101350.45
2019-03-31T11:08:05.153Z,101352.59
2019-03-31T11:10:33.881Z,101350.91
2019-03-31T11:13:02.389Z,101351.74
2019-03-31T11:15:30.930Z,101354.73
2019-03-31T11:17:59.457Z,101357.71
2019-03-31T11:20:27.874Z,101359.44
2019-03-31T11:23:03.974Z,101357.74
2019-03-31T11:25:32.468Z,101353.05
2019-03-31T11:28:00.906Z,101345.79
2019-03-31T11:30:29.381Z,101348.35
2019-03-31T11:32:57.794Z,101350.81
2019-03-31T11:35:26.250Z,101346.77
2019-03-31T11:37:54.780Z,101347.31
2019-03-31T11:40:23.283Z,101343.73
2019-03-31T11:42:51.745Z,101342.77
2019-03-31T11:45:20.281Z,101348.14
2019-03-31T11:47:48.703Z,101347.41
2019-03-31T11:50:17.798Z,101345.33
2019-03-31T11:52:46.252Z,101350.11
2019-03-31T11:55:14.759Z,101346.41
2019-03-31T11:57:43.469Z,101356.09
2019-03-31T12:00:17.153Z,101350.27
2019-03-31T12:02:45.591Z,101357.23
2019-03-31T12:05:15.200Z,101358.73
2019-03-31T12:07:47.007Z,101362.05
2019-03-31T12:10:13.943Z,101360.37
2019-03-31T12:12:42.437Z,101359.05
2019-03-31T12:15:11.440Z,101349.23
2019-03-31T12:17:39.883Z,101355.14
2019-03-31T12:20:11.263Z,101352.61
2019-03-31T12:22:39.738Z,101355.64
2019-03-31T12:25:09.225Z,101354.30
2019-03-31T12:27:37.687Z,101358.91
2019-03-31T12:30:10.330Z,101352.42
2019-03-31T12:32:39.029Z,101356.23
2019-03-31T12:35:09.029Z,101353.14
2019-03-31T12:37:42.682Z,101359.51
2019-03-31T12:40:10.392Z,101357.56
2019-03-31T12:42:38.834Z,101362.69
2019-03-31T12:45:08.039Z,101354.81
2019-03-31T12:47:36.518Z,101355.38
2019-03-31T12:50:06.823Z,101353.13
2019-03-31T12:52:46.199Z,101355.34
2019-03-31T12:55:06.401Z,101358.91
2019-03-31T12:57:36.381Z,101350.25
2019-03-31T13:00:07.355Z,101348.17
2019-03-31T13:02:35.798Z,101343.88
2019-03-31T13:05:07.769Z,101339.41
2019-03-31T13:07:36.213Z,101338.75
2019-03-31T13:10:06.217Z,101336.59
2019-03-31T13:12:35.078Z,101337.47
2019-03-31T13:15:05.611Z,101342.06
2019-03-31T13:17:34.083Z,101332.11
2019-03-31T13:20:02.529Z,101329.55
2019-03-31T13:22:30.999Z,101327.12
2019-03-31T13:25:02.332Z,101331.75
2019-03-31T13:27:29.662Z,101331.30
2019-03-31T13:29:58.094Z,101332.39
2019-03-31T13:32:26.568Z,101337.80
2019-03-31T13:34:55.152Z,101335.98
2019-03-31T13:37:23.719Z,101328.11
2019-03-31T13:39:52.228Z,101326.55
2019-03-31T13:42:20.644Z,101323.37
2019-03-31T13:44:49.201Z,101321.41
2019-03-31T13:47:17.657Z,101332.25
2019-03-31T13:49:46.060Z,101322.83
2019-03-31T13:52:14.602Z,101321.84
2019-03-31T13:54:43.091Z,101320.71
2019-03-31T13:57:13.762Z,101315.58
2019-03-31T13:59:42.734Z,101315.48
2019-03-31T14:02:11.228Z,101313.41
2019-03-31T14:04:51.022Z,101318.94
2019-03-31T14:07:10.219Z,101315.62
2019-03-31T14:09:38.644Z,101318.15
2019-03-31T14:12:07.151Z,101311.24
2019-03-31T14:14:35.581Z,101307.79
2019-03-31T14:17:04.054Z,101306.11
2019-03-31T14:19:32.632Z,101305.32
2019-03-31T14:22:01.086Z,101303.48
2019-03-31T14:24:29.519Z,101311.09
2019-03-31T14:26:57.970Z,101306.51
2019-03-31T14:29:26.417Z,101316.46
2019-03-31T14:31:54.835Z,101309.21
2019-03-31T14:34:23.303Z,101312.66
2019-03-31T14:36:51.799Z,101313.50
2019-03-31T14:39:20.231Z,101310.11
2019-03-31T14:41:48.671Z,101310.11
2019-03-31T14:44:17.118Z,101307.98
2019-03-31T14:46:45.630Z,101310.94
2019-03-31T14:49:14.350Z,101318.14
2019-03-31T14:51:42.829Z,101313.85
2019-03-31T14:54:11.318Z,101311.58
2019-03-31T14:56:39.758Z,101317.11
2019-03-31T14:59:08.228Z,101313.11
2019-03-31T15:01:36.689Z,101311.20
2019-03-31T15:04:05.336Z,101307.28
2019-03-31T15:06:33.806Z,101308.95
2019-03-31T15:09:02.229Z,101317.56
2019-03-31T15:11:31.434Z,101310.73
2019-03-31T15:14:00.199Z,101311.03
2019-03-31T15:16:30.671Z,101316.02
2019-03-31T15:18:59.264Z,101315.97
2019-03-31T15:21:27.873Z,101310.73
2019-03-31T15:23:56.468Z,101315.19
2019-03-31T15:26:24.951Z,101322.48
2019-03-31T15:28:54.091Z,101321.59
2019-03-31T15:31:22.892Z,101322.04
2019-03-31T15:33:51.851Z,101321.20
2019-03-31T15:36:20.431Z,101321.28
2019-03-31T15:38:49.305Z,101312.80
2019-03-31T15:41:21.355Z,101318.44
2019-03-31T15:43:48.471Z,101317.59
2019-03-31T15:46:19.094Z,101316.79
2019-03-31T15:48:48.723Z,101312.98
2019-03-31T15:51:18.878Z,101307.08
2019-03-31T15:53:47.625Z,101305.32
2019-03-31T15:56:16.247Z,101308.32
2019-03-31T15:58:44.744Z,101313.51
2019-03-31T16:01:16.891Z,101313.92
2019-03-31T16:03:45.587Z,101315.17
2019-03-31T16:06:14.198Z,101318.23
2019-03-31T16:08:42.703Z,101317.76
2019-03-31T16:11:11.382Z,101319.50
2019-03-31T16:13:40.037Z,101324.22
2019-03-31T16:16:08.517Z,101322.53
2019-03-31T16:18:37.036Z,101326.79
2019-03-31T16:21:05.474Z,101323.81
2019-03-31T16:23:33.896Z,101319.16
2019-03-31T16:26:02.339Z,101321.25
2019-03-31T16:28:30.801Z,101320.38
2019-03-31T16:30:59.628Z,101318.66
2019-03-31T16:33:28.132Z,101319.53
2019-03-31T16:35:56.806Z,101323.41
2019-03-31T16:38:25.847Z,101322.15
2019-03-31T16:40:55.688Z,101329.37
2019-03-31T16:43:24.168Z,101322.13
2019-03-31T16:45:52.851Z,101333.64
2019-03-31T16:48:21.320Z,101335.80
2019-03-31T16:50:49.929Z,101333.67
2019-03-31T16:53:18.508Z,101335.38
2019-03-31T16:55:47.023Z,101340.53
2019-03-31T16:58:15.805Z,101338.84
2019-03-31T17:00:44.897Z,101340.55
2019-03-31T17:03:13.525Z,101339.30
2019-03-31T17:05:42.140Z,101343.16
2019-03-31T17:08:10.925Z,101342.75
2019-03-31T17:10:39.463Z,101333.81
2019-03-31T17:13:08.045Z,101346.19
2019-03-31T17:15:36.587Z,101350.05
2019-03-31T17:18:05.143Z,101349.63
2019-03-31T17:20:33.651Z,101342.80
2019-03-31T17:23:02.780Z,101346.22
2019-03-31T17:25:31.545Z,101350.91
2019-03-31T17:28:00.297Z,101354.74
2019-03-31T17:30:28.726Z,101358.58
2019-03-31T17:32:57.241Z,101353.89
2019-03-31T17:35:25.693Z,101354.78
2019-03-31T17:37:54.117Z,101366.69
2019-03-31T17:40:22.743Z,101364.13
2019-03-31T17:42:51.556Z,101367.55
2019-03-31T17:45:20.091Z,101369.68
2019-03-31T17:47:48.722Z,101368.82
2019-03-31T17:50:17.242Z,101367.95
2019-03-31T17:52:46.235Z,101370.49
2019-03-31T17:55:15.426Z,101375.62
2019-03-31T17:57:43.931Z,101376.89
2019-03-31T18:00:13.314Z,101379.45
2019-03-31T18:02:41.900Z,101382.41
2019-03-31T18:05:10.691Z,101383.25
2019-03-31T18:07:39.159Z,101383.67
2019-03-31T18:10:19.914Z,101382.41
2019-03-31T18:12:39.092Z,101384.06
2019-03-31T18:15:08.453Z,101387.03
2019-03-31T18:17:36.904Z,101385.73
2019-03-31T18:20:07.085Z,101387.84
2019-03-31T18:22:35.742Z,101390.41
2019-03-31T18:25:07.112Z,101390.41
2019-03-31T18:27:35.666Z,101392.07
2019-03-31T18:30:05.457Z,101394.14
2019-03-31T18:32:34.305Z,101394.96
2019-03-31T18:35:02.747Z,101403.47
2019-03-31T18:37:31.360Z,101400.05
2019-03-31T18:40:00.077Z,101402.58
2019-03-31T18:42:29.497Z,101402.12
2019-03-31T18:44:57.943Z,101405.92
2019-03-31T18:47:26.722Z,101402.50
2019-03-31T18:49:55.731Z,101408.02
2019-03-31T18:52:24.243Z,101410.92
2019-03-31T18:55:00.727Z,101410.92
2019-03-31T19:00:16.893Z,101418.53
2019-03-31T19:02:56.086Z,101415.93
2019-03-31T19:05:26.418Z,101418.45
2019-03-31T19:08:12.854Z,101424.34
2019-03-31T19:10:49.797Z,101423.52
2019-03-31T19:13:24.551Z,101428.59
2019-03-31T19:15:57.765Z,101431.06
2019-03-31T19:18:44.003Z,101434.45
2019-03-31T19:21:14.354Z,101440.36
2019-03-31T19:23:56.512Z,101436.02
2019-03-31T19:26:48.063Z,101438.48
2019-03-31T19:29:17.324Z,101442.20
2019-03-31T19:31:50.484Z,101443.45
2019-03-31T19:34:26.649Z,101448.57
2019-03-31T19:37:05.596Z,101452.64
2019-03-31T19:39:45.338Z,101447.86
2019-03-31T19:42:31.761Z,101447.38
2019-03-31T19:45:02.108Z,101446.03
2019-03-31T19:47:41.826Z,101451.45
2019-03-31T19:50:18.592Z,101456.45
2019-03-31T19:52:55.223Z,101454.40
2019-03-31T19:55:40.572Z,101465.67
2019-03-31T19:58:20.078Z,101469.44
2019-03-31T20:00:50.297Z,101473.54
2019-03-31T20:03:35.896Z,101473.39
2019-03-31T20:06:06.773Z,101470.42
2019-03-31T20:08:36.911Z,101469.91
2019-03-31T20:11:23.430Z,101479.05
2019-03-31T20:14:02.866Z,101481.43
2019-03-31T20:16:33.280Z,101484.69
2019-03-31T20:19:19.923Z,101486.77
2019-03-31T20:22:08.031Z,101487.02
2019-03-31T20:24:44.111Z,101485.15
2019-03-31T20:27:19.883Z,101476.60
2019-03-31T20:29:55.854Z,101492.56
2019-03-31T20:32:35.137Z,101486.52
2019-03-31T20:35:20.646Z,101486.83
2019-03-31T20:37:57.130Z,101481.59
2019-03-31T20:40:29.984Z,101480.23
2019-03-31T20:43:00.190Z,101476.73
2019-03-31T20:45:28.630Z,101484.61
2019-03-31T20:47:57.067Z,101490.97
2019-03-31T20:50:25.953Z,101489.16
2019-03-31T20:52:54.850Z,101485.27
2019-03-31T20:55:23.267Z,101487.34
2019-03-31T20:57:51.877Z,101486.70
2019-03-31T21:00:20.479Z,101492.00
2019-03-31T21:02:50.357Z,101502.08
2019-03-31T21:05:18.894Z,101495.22
2019-03-31T21:07:47.891Z,101496.40
2019-03-31T21:10:16.323Z,101499.74
2019-03-31T21:12:44.785Z,101503.98
2019-03-31T21:15:13.986Z,101495.01
2019-03-31T21:17:42.716Z,101501.31
2019-03-31T21:20:11.506Z,101500.55
2019-03-31T21:22:40.049Z,101496.23
2019-03-31T21:25:08.819Z,101503.66
2019-03-31T21:27:37.619Z,101508.23
2019-03-31T21:30:07.811Z,101515.05
2019-03-31T21:32:36.322Z,101516.31
2019-03-31T21:35:07.688Z,101519.66
2019-03-31T21:37:36.363Z,101525.06
2019-03-31T21:40:07.513Z,101525.86
2019-03-31T21:42:37.035Z,101525.82
2019-03-31T21:45:07.234Z,101522.72
2019-03-31T21:47:35.646Z,101530.70
2019-03-31T21:50:06.287Z,101533.14
2019-03-31T21:52:34.742Z,101533.89
2019-03-31T21:55:04.355Z,101529.48
2019-03-31T21:57:32.892Z,101539.72
2019-03-31T22:00:01.340Z,101540.42
2019-03-31T22:02:29.758Z,101544.70
2019-03-31T22:04:58.197Z,101543.44
2019-03-31T22:07:26.631Z,101543.05
2019-03-31T22:09:55.049Z,101552.41
2019-03-31T22:12:23.503Z,101549.63
2019-03-31T22:14:51.943Z,101545.77
2019-03-31T22:17:20.780Z,101555.39
2019-03-31T22:19:49.218Z,101551.64
2019-03-31T22:22:17.821Z,101545.58
2019-03-31T22:24:46.579Z,101545.89
2019-03-31T22:27:15.054Z,101550.16
2019-03-31T22:29:44.036Z,101549.43
2019-03-31T22:32:13.223Z,101549.52
2019-03-31T22:34:43.926Z,101551.27
2019-03-31T22:37:13.489Z,101557.12
2019-03-31T22:39:42.259Z,101563.42
2019-03-31T22:42:10.940Z,101559.26
2019-03-31T22:44:39.685Z,101557.08
2019-03-31T22:47:08.240Z,101552.70
2019-03-31T22:49:37.082Z,101550.73
2019-03-31T22:52:06.110Z,101551.94
2019-03-31T22:54:35.095Z,101556.34
2019-03-31T22:57:03.556Z,101553.69
2019-03-31T22:59:32.304Z,101549.10
2019-03-31T23:02:00.841Z,101556.16
2019-03-31T23:04:29.584Z,101556.48
2019-03-31T23:06:59.818Z,101555.78
2019-03-31T23:09:29.869Z,101553.97
2019-03-31T23:11:58.920Z,101555.19
2019-03-31T23:14:27.362Z,101550.34
2019-03-31T23:16:56.985Z,101546.84
2019-03-31T23:19:26.047Z,101554.70
2019-03-31T23:21:54.502Z,101556.53
2019-03-31T23:24:23.619Z,101562.87
2019-03-31T23:26:52.746Z,101558.20
2019-03-31T23:29:21.255Z,101558.75
2019-03-31T23:31:49.681Z,101556.41
2019-03-31T23:34:18.464Z,101558.94
2019-03-31T23:36:47.319Z,101555.79
2019-03-31T23:39:15.804Z,101562.50
2019-03-31T23:41:44.236Z,101562.48
2019-03-31T23:44:13.250Z,101560.20
2019-03-31T23:46:41.866Z,101561.47
2019-03-31T23:49:10.567Z,101561.21
2019-03-31T23:51:39.622Z,101560.36
2019-03-31T23:54:08.767Z,101561.88
2019-03-31T23:56:37.241Z,101563.30
2019-03-31T23:59:05.753Z,101571.20
